sensor_id;sensor_type;location;lat;lon;timestamp;P1;durP1;ratioP1;P2;durP2;ratioP2
34988;SDS011;21192;40.182;44.516;2023-06-10T00:01:49;13.75;;;4.95;;
34988;SDS011;21192;40.182;44.516;2023-06-10T00:04:15;15.00;;;4.70;;
34988;SDS011;21192;40.182;44.516;2023-06-10T00:06:44;12.38;;;4.75;;
34988;SDS011;21192;40.182;44.516;2023-06-10T00:09:13;13.20;;;5.18;;
34988;SDS011;21192;40.182;44.516;2023-06-10T00:11:39;15.32;;;4.45;;
34988;SDS011;21192;40.182;44.516;2023-06-10T00:14:06;15.75;;;5.93;;
34988;SDS011;21192;40.182;44.516;2023-06-10T00:16:32;12.82;;;4.78;;
34988;SDS011;21192;40.182;44.516;2023-06-10T00:19:02;12.60;;;4.70;;
34988;SDS011;21192;40.182;44.516;2023-06-10T00:21:33;16.85;;;5.50;;
34988;SDS011;21192;40.182;44.516;2023-06-10T00:24:05;19.80;;;5.78;;
34988;SDS011;21192;40.182;44.516;2023-06-10T00:26:32;14.80;;;5.88;;
34988;SDS011;21192;40.182;44.516;2023-06-10T00:29:01;12.30;;;5.20;;
34988;SDS011;21192;40.182;44.516;2023-06-10T00:31:27;17.15;;;5.38;;
34988;SDS011;21192;40.182;44.516;2023-06-10T00:33:52;18.35;;;5.68;;
34988;SDS011;21192;40.182;44.516;2023-06-10T00:36:18;13.80;;;5.25;;
34988;SDS011;21192;40.182;44.516;2023-06-10T00:38:44;17.30;;;5.10;;
34988;SDS011;21192;40.182;44.516;2023-06-10T00:41:10;12.63;;;5.70;;
34988;SDS011;21192;40.182;44.516;2023-06-10T00:43:36;12.27;;;4.95;;
34988;SDS011;21192;40.182;44.516;2023-06-10T00:46:02;15.38;;;6.18;;
34988;SDS011;21192;40.182;44.516;2023-06-10T00:48:28;15.13;;;5.80;;
34988;SDS011;21192;40.182;44.516;2023-06-10T00:50:54;13.55;;;5.32;;
34988;SDS011;21192;40.182;44.516;2023-06-10T00:53:21;15.88;;;5.18;;
34988;SDS011;21192;40.182;44.516;2023-06-10T00:55:47;15.25;;;5.90;;
34988;SDS011;21192;40.182;44.516;2023-06-10T00:58:14;14.63;;;5.32;;
34988;SDS011;21192;40.182;44.516;2023-06-10T01:00:40;13.77;;;5.13;;
34988;SDS011;21192;40.182;44.516;2023-06-10T01:03:06;13.75;;;5.10;;
34988;SDS011;21192;40.182;44.516;2023-06-10T01:05:35;13.32;;;4.97;;
34988;SDS011;21192;40.182;44.516;2023-06-10T01:08:07;9.68;;;4.72;;
34988;SDS011;21192;40.182;44.516;2023-06-10T01:10:45;14.10;;;4.90;;
34988;SDS011;21192;40.182;44.516;2023-06-10T01:13:15;13.35;;;5.15;;
34988;SDS011;21192;40.182;44.516;2023-06-10T01:15:43;13.65;;;5.10;;
34988;SDS011;21192;40.182;44.516;2023-06-10T01:18:09;13.75;;;5.82;;
34988;SDS011;21192;40.182;44.516;2023-06-10T01:20:40;14.52;;;5.57;;
34988;SDS011;21192;40.182;44.516;2023-06-10T01:23:07;12.82;;;5.18;;
34988;SDS011;21192;40.182;44.516;2023-06-10T01:25:33;15.18;;;5.43;;
34988;SDS011;21192;40.182;44.516;2023-06-10T01:28:17;12.48;;;4.72;;
34988;SDS011;21192;40.182;44.516;2023-06-10T01:33:27;16.45;;;4.95;;
34988;SDS011;21192;40.182;44.516;2023-06-10T01:35:56;14.20;;;5.57;;
34988;SDS011;21192;40.182;44.516;2023-06-10T01:38:25;13.50;;;4.78;;
34988;SDS011;21192;40.182;44.516;2023-06-10T01:40:55;11.60;;;4.78;;
34988;SDS011;21192;40.182;44.516;2023-06-10T01:43:21;12.98;;;4.88;;
34988;SDS011;21192;40.182;44.516;2023-06-10T01:45:47;12.10;;;4.18;;
34988;SDS011;21192;40.182;44.516;2023-06-10T01:48:13;12.20;;;4.80;;
34988;SDS011;21192;40.182;44.516;2023-06-10T01:50:39;12.65;;;4.22;;
34988;SDS011;21192;40.182;44.516;2023-06-10T01:53:05;13.85;;;4.43;;
34988;SDS011;21192;40.182;44.516;2023-06-10T01:55:31;13.60;;;4.30;;
34988;SDS011;21192;40.182;44.516;2023-06-10T01:57:56;14.30;;;4.50;;
34988;SDS011;21192;40.182;44.516;2023-06-10T02:00:22;13.15;;;5.45;;
34988;SDS011;21192;40.182;44.516;2023-06-10T02:02:48;10.18;;;5.00;;
34988;SDS011;21192;40.182;44.516;2023-06-10T02:05:14;18.00;;;6.05;;
34988;SDS011;21192;40.182;44.516;2023-06-10T02:07:40;18.13;;;6.07;;
34988;SDS011;21192;40.182;44.516;2023-06-10T02:10:06;15.18;;;6.55;;
34988;SDS011;21192;40.182;44.516;2023-06-10T02:12:32;19.70;;;7.68;;
34988;SDS011;21192;40.182;44.516;2023-06-10T02:14:58;19.75;;;6.68;;
34988;SDS011;21192;40.182;44.516;2023-06-10T02:17:24;25.48;;;8.30;;
34988;SDS011;21192;40.182;44.516;2023-06-10T02:19:50;15.60;;;7.70;;
34988;SDS011;21192;40.182;44.516;2023-06-10T02:22:22;16.23;;;7.53;;
34988;SDS011;21192;40.182;44.516;2023-06-10T02:24:48;15.90;;;6.55;;
34988;SDS011;21192;40.182;44.516;2023-06-10T02:27:15;17.55;;;6.80;;
34988;SDS011;21192;40.182;44.516;2023-06-10T02:29:41;20.00;;;7.00;;
34988;SDS011;21192;40.182;44.516;2023-06-10T02:32:08;19.23;;;7.13;;
34988;SDS011;21192;40.182;44.516;2023-06-10T02:34:34;19.00;;;7.72;;
34988;SDS011;21192;40.182;44.516;2023-06-10T02:37:01;14.65;;;5.57;;
34988;SDS011;21192;40.182;44.516;2023-06-10T02:39:27;15.60;;;6.13;;
34988;SDS011;21192;40.182;44.516;2023-06-10T02:41:53;18.95;;;6.97;;
34988;SDS011;21192;40.182;44.516;2023-06-10T02:44:19;17.60;;;7.22;;
34988;SDS011;21192;40.182;44.516;2023-06-10T02:46:45;13.75;;;5.50;;
34988;SDS011;21192;40.182;44.516;2023-06-10T02:49:11;18.88;;;5.50;;
34988;SDS011;21192;40.182;44.516;2023-06-10T02:51:38;10.77;;;4.72;;
34988;SDS011;21192;40.182;44.516;2023-06-10T02:54:04;14.00;;;5.07;;
34988;SDS011;21192;40.182;44.516;2023-06-10T02:56:30;13.05;;;5.53;;
34988;SDS011;21192;40.182;44.516;2023-06-10T02:58:58;15.27;;;5.65;;
34988;SDS011;21192;40.182;44.516;2023-06-10T03:01:24;17.58;;;5.88;;
34988;SDS011;21192;40.182;44.516;2023-06-10T03:03:50;18.27;;;6.15;;
34988;SDS011;21192;40.182;44.516;2023-06-10T03:06:16;15.85;;;6.15;;
34988;SDS011;21192;40.182;44.516;2023-06-10T03:08:43;14.15;;;6.03;;
34988;SDS011;21192;40.182;44.516;2023-06-10T03:11:10;18.98;;;6.60;;
34988;SDS011;21192;40.182;44.516;2023-06-10T03:13:37;16.85;;;6.05;;
34988;SDS011;21192;40.182;44.516;2023-06-10T03:16:04;18.98;;;6.82;;
34988;SDS011;21192;40.182;44.516;2023-06-10T03:18:30;17.92;;;6.07;;
34988;SDS011;21192;40.182;44.516;2023-06-10T03:20:56;15.13;;;6.18;;
34988;SDS011;21192;40.182;44.516;2023-06-10T03:23:22;18.48;;;6.38;;
34988;SDS011;21192;40.182;44.516;2023-06-10T03:25:48;18.52;;;6.50;;
34988;SDS011;21192;40.182;44.516;2023-06-10T03:28:14;16.13;;;6.90;;
34988;SDS011;21192;40.182;44.516;2023-06-10T03:30:40;15.02;;;5.32;;
34988;SDS011;21192;40.182;44.516;2023-06-10T03:33:06;13.75;;;5.22;;
34988;SDS011;21192;40.182;44.516;2023-06-10T03:35:32;12.00;;;5.53;;
34988;SDS011;21192;40.182;44.516;2023-06-10T03:37:58;10.77;;;5.28;;
34988;SDS011;21192;40.182;44.516;2023-06-10T03:40:24;13.95;;;5.38;;
34988;SDS011;21192;40.182;44.516;2023-06-10T03:42:50;15.70;;;5.13;;
34988;SDS011;21192;40.182;44.516;2023-06-10T03:45:15;13.70;;;5.40;;
34988;SDS011;21192;40.182;44.516;2023-06-10T03:47:41;18.02;;;6.38;;
34988;SDS011;21192;40.182;44.516;2023-06-10T03:50:08;23.20;;;5.45;;
34988;SDS011;21192;40.182;44.516;2023-06-10T03:52:37;13.05;;;4.85;;
34988;SDS011;21192;40.182;44.516;2023-06-10T03:55:04;14.85;;;5.47;;
34988;SDS011;21192;40.182;44.516;2023-06-10T03:57:31;17.75;;;5.93;;
34988;SDS011;21192;40.182;44.516;2023-06-10T03:59:57;13.82;;;5.43;;
34988;SDS011;21192;40.182;44.516;2023-06-10T04:02:23;14.27;;;5.18;;
34988;SDS011;21192;40.182;44.516;2023-06-10T04:04:49;16.20;;;5.50;;
34988;SDS011;21192;40.182;44.516;2023-06-10T04:07:16;12.88;;;5.60;;
34988;SDS011;21192;40.182;44.516;2023-06-10T04:09:44;12.18;;;5.10;;
34988;SDS011;21192;40.182;44.516;2023-06-10T04:12:09;13.50;;;4.80;;
34988;SDS011;21192;40.182;44.516;2023-06-10T04:14:35;21.38;;;5.55;;
34988;SDS011;21192;40.182;44.516;2023-06-10T04:17:02;14.85;;;5.47;;
34988;SDS011;21192;40.182;44.516;2023-06-10T04:19:31;11.88;;;4.55;;
34988;SDS011;21192;40.182;44.516;2023-06-10T04:21:58;10.63;;;3.10;;
34988;SDS011;21192;40.182;44.516;2023-06-10T04:24:25;14.48;;;3.83;;
34988;SDS011;21192;40.182;44.516;2023-06-10T04:26:51;13.02;;;4.75;;
34988;SDS011;21192;40.182;44.516;2023-06-10T04:29:17;14.35;;;3.72;;
34988;SDS011;21192;40.182;44.516;2023-06-10T04:31:43;14.13;;;3.65;;
34988;SDS011;21192;40.182;44.516;2023-06-10T04:34:11;14.15;;;3.50;;
34988;SDS011;21192;40.182;44.516;2023-06-10T04:36:37;14.15;;;3.50;;
34988;SDS011;21192;40.182;44.516;2023-06-10T04:39:03;17.63;;;3.65;;
34988;SDS011;21192;40.182;44.516;2023-06-10T04:41:30;12.18;;;3.40;;
34988;SDS011;21192;40.182;44.516;2023-06-10T04:43:57;11.02;;;3.05;;
34988;SDS011;21192;40.182;44.516;2023-06-10T04:46:23;11.73;;;3.22;;
34988;SDS011;21192;40.182;44.516;2023-06-10T04:48:49;12.93;;;3.78;;
34988;SDS011;21192;40.182;44.516;2023-06-10T04:51:15;15.75;;;3.25;;
34988;SDS011;21192;40.182;44.516;2023-06-10T04:53:41;12.43;;;3.78;;
34988;SDS011;21192;40.182;44.516;2023-06-10T04:56:07;14.25;;;3.72;;
34988;SDS011;21192;40.182;44.516;2023-06-10T04:58:34;15.23;;;3.85;;
34988;SDS011;21192;40.182;44.516;2023-06-10T05:00:59;13.30;;;3.45;;
34988;SDS011;21192;40.182;44.516;2023-06-10T05:03:27;14.65;;;3.40;;
34988;SDS011;21192;40.182;44.516;2023-06-10T05:05:52;15.38;;;3.42;;
34988;SDS011;21192;40.182;44.516;2023-06-10T05:08:18;13.50;;;4.00;;
34988;SDS011;21192;40.182;44.516;2023-06-10T05:10:44;13.27;;;3.67;;
34988;SDS011;21192;40.182;44.516;2023-06-10T05:13:10;13.48;;;3.60;;
34988;SDS011;21192;40.182;44.516;2023-06-10T05:15:36;14.30;;;4.57;;
34988;SDS011;21192;40.182;44.516;2023-06-10T05:18:02;18.63;;;4.82;;
34988;SDS011;21192;40.182;44.516;2023-06-10T05:20:28;18.55;;;5.38;;
34988;SDS011;21192;40.182;44.516;2023-06-10T05:22:54;14.02;;;5.13;;
34988;SDS011;21192;40.182;44.516;2023-06-10T05:25:20;15.98;;;5.22;;
34988;SDS011;21192;40.182;44.516;2023-06-10T05:27:46;16.30;;;5.25;;
34988;SDS011;21192;40.182;44.516;2023-06-10T05:30:12;21.75;;;5.55;;
34988;SDS011;21192;40.182;44.516;2023-06-10T05:32:38;22.55;;;5.30;;
34988;SDS011;21192;40.182;44.516;2023-06-10T05:35:04;25.05;;;6.18;;
34988;SDS011;21192;40.182;44.516;2023-06-10T05:37:31;19.55;;;5.75;;
34988;SDS011;21192;40.182;44.516;2023-06-10T05:39:58;12.15;;;4.88;;
34988;SDS011;21192;40.182;44.516;2023-06-10T05:42:24;12.95;;;4.25;;
34988;SDS011;21192;40.182;44.516;2023-06-10T05:44:50;17.13;;;4.18;;
34988;SDS011;21192;40.182;44.516;2023-06-10T05:47:16;21.30;;;4.65;;
34988;SDS011;21192;40.182;44.516;2023-06-10T05:49:42;16.90;;;4.43;;
34988;SDS011;21192;40.182;44.516;2023-06-10T05:52:10;18.35;;;4.18;;
34988;SDS011;21192;40.182;44.516;2023-06-10T05:54:36;14.13;;;3.80;;
34988;SDS011;21192;40.182;44.516;2023-06-10T05:57:02;16.88;;;5.07;;
34988;SDS011;21192;40.182;44.516;2023-06-10T05:59:28;19.33;;;4.63;;
34988;SDS011;21192;40.182;44.516;2023-06-10T06:01:54;15.35;;;4.20;;
34988;SDS011;21192;40.182;44.516;2023-06-10T06:04:20;12.77;;;3.38;;
34988;SDS011;21192;40.182;44.516;2023-06-10T06:06:46;18.63;;;4.45;;
34988;SDS011;21192;40.182;44.516;2023-06-10T06:09:11;17.80;;;4.88;;
34988;SDS011;21192;40.182;44.516;2023-06-10T06:11:38;20.70;;;4.43;;
34988;SDS011;21192;40.182;44.516;2023-06-10T06:14:03;12.65;;;4.22;;
34988;SDS011;21192;40.182;44.516;2023-06-10T06:16:29;11.77;;;3.90;;
34988;SDS011;21192;40.182;44.516;2023-06-10T06:18:55;16.17;;;4.20;;
34988;SDS011;21192;40.182;44.516;2023-06-10T06:21:21;11.25;;;3.80;;
34988;SDS011;21192;40.182;44.516;2023-06-10T06:23:47;12.32;;;3.80;;
34988;SDS011;21192;40.182;44.516;2023-06-10T06:26:13;13.57;;;4.25;;
34988;SDS011;21192;40.182;44.516;2023-06-10T06:28:38;14.05;;;4.30;;
34988;SDS011;21192;40.182;44.516;2023-06-10T06:31:05;15.05;;;4.05;;
34988;SDS011;21192;40.182;44.516;2023-06-10T06:33:31;17.63;;;4.68;;
34988;SDS011;21192;40.182;44.516;2023-06-10T06:35:57;16.42;;;5.05;;
34988;SDS011;21192;40.182;44.516;2023-06-10T06:38:25;25.38;;;4.32;;
34988;SDS011;21192;40.182;44.516;2023-06-10T06:40:51;16.50;;;4.80;;
34988;SDS011;21192;40.182;44.516;2023-06-10T06:43:17;16.17;;;4.93;;
34988;SDS011;21192;40.182;44.516;2023-06-10T06:45:43;18.02;;;5.25;;
34988;SDS011;21192;40.182;44.516;2023-06-10T06:48:10;17.75;;;5.43;;
34988;SDS011;21192;40.182;44.516;2023-06-10T06:50:37;15.65;;;5.07;;
34988;SDS011;21192;40.182;44.516;2023-06-10T06:53:03;17.48;;;4.95;;
34988;SDS011;21192;40.182;44.516;2023-06-10T06:55:29;23.50;;;5.07;;
34988;SDS011;21192;40.182;44.516;2023-06-10T06:57:55;16.27;;;4.68;;
34988;SDS011;21192;40.182;44.516;2023-06-10T07:00:21;20.63;;;4.82;;
34988;SDS011;21192;40.182;44.516;2023-06-10T07:02:48;12.98;;;4.28;;
34988;SDS011;21192;40.182;44.516;2023-06-10T07:05:13;12.10;;;3.80;;
34988;SDS011;21192;40.182;44.516;2023-06-10T07:07:39;16.20;;;5.05;;
34988;SDS011;21192;40.182;44.516;2023-06-10T07:10:05;13.55;;;4.10;;
34988;SDS011;21192;40.182;44.516;2023-06-10T07:12:31;23.27;;;5.47;;
34988;SDS011;21192;40.182;44.516;2023-06-10T07:14:57;19.67;;;5.20;;
34988;SDS011;21192;40.182;44.516;2023-06-10T07:17:23;17.17;;;4.00;;
34988;SDS011;21192;40.182;44.516;2023-06-10T07:19:49;11.93;;;3.47;;
34988;SDS011;21192;40.182;44.516;2023-06-10T07:22:16;17.48;;;5.00;;
34988;SDS011;21192;40.182;44.516;2023-06-10T07:24:42;12.95;;;5.50;;
34988;SDS011;21192;40.182;44.516;2023-06-10T07:27:08;14.60;;;4.82;;
34988;SDS011;21192;40.182;44.516;2023-06-10T07:29:35;9.20;;;3.67;;
34988;SDS011;21192;40.182;44.516;2023-06-10T07:32:02;12.40;;;4.40;;
34988;SDS011;21192;40.182;44.516;2023-06-10T07:34:28;14.38;;;4.20;;
34988;SDS011;21192;40.182;44.516;2023-06-10T07:36:54;15.50;;;4.32;;
34988;SDS011;21192;40.182;44.516;2023-06-10T07:39:20;14.68;;;4.07;;
34988;SDS011;21192;40.182;44.516;2023-06-10T07:41:46;12.05;;;3.95;;
34988;SDS011;21192;40.182;44.516;2023-06-10T07:44:14;17.10;;;5.95;;
34988;SDS011;21192;40.182;44.516;2023-06-10T07:46:39;13.48;;;4.07;;
34988;SDS011;21192;40.182;44.516;2023-06-10T07:49:05;14.90;;;5.22;;
34988;SDS011;21192;40.182;44.516;2023-06-10T07:51:31;15.50;;;4.40;;
34988;SDS011;21192;40.182;44.516;2023-06-10T07:53:57;26.73;;;5.85;;
34988;SDS011;21192;40.182;44.516;2023-06-10T07:56:23;32.28;;;8.38;;
34988;SDS011;21192;40.182;44.516;2023-06-10T07:58:48;22.83;;;8.10;;
34988;SDS011;21192;40.182;44.516;2023-06-10T08:01:14;23.00;;;6.85;;
34988;SDS011;21192;40.182;44.516;2023-06-10T08:03:40;18.63;;;5.18;;
34988;SDS011;21192;40.182;44.516;2023-06-10T08:06:06;22.65;;;5.35;;
34988;SDS011;21192;40.182;44.516;2023-06-10T08:08:32;41.70;;;7.25;;
34988;SDS011;21192;40.182;44.516;2023-06-10T08:10:59;39.72;;;8.65;;
34988;SDS011;21192;40.182;44.516;2023-06-10T08:13:25;18.48;;;4.88;;
34988;SDS011;21192;40.182;44.516;2023-06-10T08:15:51;16.48;;;5.10;;
34988;SDS011;21192;40.182;44.516;2023-06-10T08:18:18;25.63;;;6.60;;
34988;SDS011;21192;40.182;44.516;2023-06-10T08:20:44;16.73;;;5.20;;
34988;SDS011;21192;40.182;44.516;2023-06-10T08:23:10;24.25;;;4.63;;
34988;SDS011;21192;40.182;44.516;2023-06-10T08:25:36;13.55;;;5.00;;
34988;SDS011;21192;40.182;44.516;2023-06-10T08:28:01;14.45;;;5.20;;
34988;SDS011;21192;40.182;44.516;2023-06-10T08:30:27;12.05;;;4.82;;
34988;SDS011;21192;40.182;44.516;2023-06-10T08:32:53;19.33;;;5.20;;
34988;SDS011;21192;40.182;44.516;2023-06-10T08:35:20;14.98;;;5.75;;
34988;SDS011;21192;40.182;44.516;2023-06-10T08:37:47;16.20;;;5.65;;
34988;SDS011;21192;40.182;44.516;2023-06-10T08:40:13;22.13;;;6.60;;
34988;SDS011;21192;40.182;44.516;2023-06-10T08:42:39;16.70;;;5.10;;
34988;SDS011;21192;40.182;44.516;2023-06-10T08:45:12;20.38;;;6.82;;
34988;SDS011;21192;40.182;44.516;2023-06-10T08:47:44;16.65;;;4.97;;
34988;SDS011;21192;40.182;44.516;2023-06-10T08:50:11;16.85;;;4.47;;
34988;SDS011;21192;40.182;44.516;2023-06-10T08:52:43;14.63;;;3.55;;
34988;SDS011;21192;40.182;44.516;2023-06-10T08:55:21;17.27;;;4.57;;
34988;SDS011;21192;40.182;44.516;2023-06-10T08:57:53;10.82;;;4.00;;
34988;SDS011;21192;40.182;44.516;2023-06-10T09:00:19;16.67;;;4.28;;
34988;SDS011;21192;40.182;44.516;2023-06-10T09:02:46;16.02;;;5.28;;
34988;SDS011;21192;40.182;44.516;2023-06-10T09:05:12;15.73;;;6.10;;
34988;SDS011;21192;40.182;44.516;2023-06-10T09:07:39;23.00;;;6.65;;
34988;SDS011;21192;40.182;44.516;2023-06-10T09:10:05;13.65;;;6.85;;
34988;SDS011;21192;40.182;44.516;2023-06-10T09:12:35;15.15;;;5.75;;
34988;SDS011;21192;40.182;44.516;2023-06-10T09:15:03;15.80;;;3.90;;
34988;SDS011;21192;40.182;44.516;2023-06-10T09:17:29;12.60;;;3.63;;
34988;SDS011;21192;40.182;44.516;2023-06-10T09:19:56;16.67;;;5.75;;
34988;SDS011;21192;40.182;44.516;2023-06-10T09:22:22;17.17;;;3.95;;
34988;SDS011;21192;40.182;44.516;2023-06-10T09:24:49;14.88;;;4.10;;
34988;SDS011;21192;40.182;44.516;2023-06-10T09:27:15;14.98;;;3.85;;
34988;SDS011;21192;40.182;44.516;2023-06-10T09:29:53;12.18;;;4.03;;
34988;SDS011;21192;40.182;44.516;2023-06-10T09:32:20;12.27;;;3.97;;
34988;SDS011;21192;40.182;44.516;2023-06-10T09:34:46;14.93;;;5.03;;
34988;SDS011;21192;40.182;44.516;2023-06-10T09:37:13;16.90;;;5.55;;
34988;SDS011;21192;40.182;44.516;2023-06-10T09:40:05;15.32;;;5.35;;
34988;SDS011;21192;40.182;44.516;2023-06-10T09:42:33;20.15;;;5.40;;
34988;SDS011;21192;40.182;44.516;2023-06-10T09:45:03;15.75;;;4.75;;
34988;SDS011;21192;40.182;44.516;2023-06-10T09:47:30;15.48;;;5.18;;
34988;SDS011;21192;40.182;44.516;2023-06-10T09:49:56;15.52;;;4.75;;
34988;SDS011;21192;40.182;44.516;2023-06-10T09:52:22;12.68;;;4.15;;
34988;SDS011;21192;40.182;44.516;2023-06-10T09:54:52;16.05;;;4.43;;
34988;SDS011;21192;40.182;44.516;2023-06-10T09:57:19;21.33;;;5.18;;
34988;SDS011;21192;40.182;44.516;2023-06-10T09:59:47;15.13;;;4.57;;
34988;SDS011;21192;40.182;44.516;2023-06-10T10:02:16;13.18;;;4.05;;
34988;SDS011;21192;40.182;44.516;2023-06-10T10:04:45;20.25;;;4.97;;
34988;SDS011;21192;40.182;44.516;2023-06-10T10:07:11;16.15;;;5.80;;
34988;SDS011;21192;40.182;44.516;2023-06-10T10:09:38;23.30;;;7.47;;
34988;SDS011;21192;40.182;44.516;2023-06-10T10:12:09;17.60;;;5.32;;
34988;SDS011;21192;40.182;44.516;2023-06-10T10:14:39;15.20;;;6.93;;
34988;SDS011;21192;40.182;44.516;2023-06-10T10:17:11;16.92;;;6.55;;
34988;SDS011;21192;40.182;44.516;2023-06-10T10:19:41;19.95;;;7.15;;
34988;SDS011;21192;40.182;44.516;2023-06-10T10:22:15;19.80;;;6.47;;
34988;SDS011;21192;40.182;44.516;2023-06-10T10:24:52;21.38;;;5.78;;
34988;SDS011;21192;40.182;44.516;2023-06-10T10:27:22;13.25;;;5.00;;
34988;SDS011;21192;40.182;44.516;2023-06-10T10:30:04;17.23;;;6.10;;
34988;SDS011;21192;40.182;44.516;2023-06-10T10:32:35;15.80;;;5.95;;
34988;SDS011;21192;40.182;44.516;2023-06-10T10:35:08;26.75;;;7.97;;
34988;SDS011;21192;40.182;44.516;2023-06-10T10:37:39;20.52;;;7.10;;
34988;SDS011;21192;40.182;44.516;2023-06-10T10:40:05;16.33;;;6.32;;
34988;SDS011;21192;40.182;44.516;2023-06-10T10:42:32;19.52;;;6.57;;
34988;SDS011;21192;40.182;44.516;2023-06-10T10:44:59;18.48;;;7.10;;
34988;SDS011;21192;40.182;44.516;2023-06-10T10:47:27;20.63;;;6.50;;
34988;SDS011;21192;40.182;44.516;2023-06-10T10:49:56;17.75;;;6.22;;
34988;SDS011;21192;40.182;44.516;2023-06-10T10:52:25;20.25;;;6.32;;
34988;SDS011;21192;40.182;44.516;2023-06-10T10:54:53;22.38;;;6.50;;
34988;SDS011;21192;40.182;44.516;2023-06-10T10:57:21;35.40;;;8.45;;
34988;SDS011;21192;40.182;44.516;2023-06-10T11:02:32;31.45;;;8.75;;
34988;SDS011;21192;40.182;44.516;2023-06-10T11:05:00;23.35;;;5.60;;
34988;SDS011;21192;40.182;44.516;2023-06-10T11:07:29;19.23;;;5.72;;
34988;SDS011;21192;40.182;44.516;2023-06-10T11:12:50;18.08;;;5.90;;
34988;SDS011;21192;40.182;44.516;2023-06-10T11:15:25;28.45;;;6.90;;
34988;SDS011;21192;40.182;44.516;2023-06-10T11:20:44;17.50;;;5.30;;
34988;SDS011;21192;40.182;44.516;2023-06-10T11:26:10;20.20;;;6.00;;
34988;SDS011;21192;40.182;44.516;2023-06-10T11:33:54;29.83;;;5.40;;
34988;SDS011;21192;40.182;44.516;2023-06-10T11:36:24;23.58;;;5.25;;
34988;SDS011;21192;40.182;44.516;2023-06-10T11:38:55;21.40;;;6.90;;
34988;SDS011;21192;40.182;44.516;2023-06-10T11:41:25;29.63;;;7.43;;
34988;SDS011;21192;40.182;44.516;2023-06-10T11:43:53;24.33;;;6.43;;
34988;SDS011;21192;40.182;44.516;2023-06-10T11:46:21;48.60;;;8.80;;
34988;SDS011;21192;40.182;44.516;2023-06-10T11:48:51;19.60;;;6.65;;
34988;SDS011;21192;40.182;44.516;2023-06-10T11:51:18;21.05;;;6.28;;
34988;SDS011;21192;40.182;44.516;2023-06-10T11:53:45;18.55;;;6.68;;
34988;SDS011;21192;40.182;44.516;2023-06-10T11:56:11;14.73;;;4.85;;
34988;SDS011;21192;40.182;44.516;2023-06-10T11:58:37;19.38;;;5.85;;
34988;SDS011;21192;40.182;44.516;2023-06-10T12:01:08;16.80;;;5.50;;
34988;SDS011;21192;40.182;44.516;2023-06-10T12:03:38;15.27;;;4.72;;
34988;SDS011;21192;40.182;44.516;2023-06-10T12:06:05;23.58;;;5.68;;
34988;SDS011;21192;40.182;44.516;2023-06-10T12:08:32;22.30;;;5.55;;
34988;SDS011;21192;40.182;44.516;2023-06-10T12:10:59;33.90;;;6.80;;
34988;SDS011;21192;40.182;44.516;2023-06-10T12:13:28;28.02;;;8.30;;
34988;SDS011;21192;40.182;44.516;2023-06-10T12:15:54;21.40;;;5.75;;
34988;SDS011;21192;40.182;44.516;2023-06-10T12:18:30;110.90;;;10.20;;
34988;SDS011;21192;40.182;44.516;2023-06-10T12:20:56;33.60;;;7.03;;
34988;SDS011;21192;40.182;44.516;2023-06-10T12:23:22;29.45;;;7.90;;
34988;SDS011;21192;40.182;44.516;2023-06-10T12:25:51;22.88;;;7.35;;
34988;SDS011;21192;40.182;44.516;2023-06-10T12:28:24;24.88;;;7.82;;
34988;SDS011;21192;40.182;44.516;2023-06-10T12:30:51;30.92;;;9.02;;
34988;SDS011;21192;40.182;44.516;2023-06-10T12:33:30;28.50;;;9.27;;
34988;SDS011;21192;40.182;44.516;2023-06-10T12:35:56;25.48;;;7.60;;
34988;SDS011;21192;40.182;44.516;2023-06-10T12:38:22;21.05;;;8.50;;
34988;SDS011;21192;40.182;44.516;2023-06-10T12:40:49;35.20;;;10.43;;
34988;SDS011;21192;40.182;44.516;2023-06-10T12:43:19;24.05;;;10.15;;
34988;SDS011;21192;40.182;44.516;2023-06-10T12:45:46;23.90;;;7.47;;
34988;SDS011;21192;40.182;44.516;2023-06-10T12:48:17;23.33;;;8.68;;
34988;SDS011;21192;40.182;44.516;2023-06-10T12:50:56;27.45;;;8.70;;
34988;SDS011;21192;40.182;44.516;2023-06-10T12:53:23;21.90;;;10.65;;
34988;SDS011;21192;40.182;44.516;2023-06-10T12:55:51;20.33;;;9.55;;
34988;SDS011;21192;40.182;44.516;2023-06-10T12:58:20;17.98;;;7.82;;
34988;SDS011;21192;40.182;44.516;2023-06-10T13:00:47;20.15;;;8.55;;
34988;SDS011;21192;40.182;44.516;2023-06-10T13:03:14;23.48;;;7.70;;
34988;SDS011;21192;40.182;44.516;2023-06-10T13:05:40;22.65;;;7.05;;
34988;SDS011;21192;40.182;44.516;2023-06-10T13:08:07;16.48;;;6.28;;
34988;SDS011;21192;40.182;44.516;2023-06-10T13:10:35;18.15;;;7.10;;
34988;SDS011;21192;40.182;44.516;2023-06-10T13:13:01;23.05;;;7.32;;
34988;SDS011;21192;40.182;44.516;2023-06-10T13:15:31;25.70;;;7.90;;
34988;SDS011;21192;40.182;44.516;2023-06-10T13:18:01;25.48;;;7.85;;
34988;SDS011;21192;40.182;44.516;2023-06-10T13:20:28;20.58;;;7.78;;
34988;SDS011;21192;40.182;44.516;2023-06-10T13:22:54;22.98;;;7.85;;
34988;SDS011;21192;40.182;44.516;2023-06-10T13:25:20;23.98;;;8.32;;
34988;SDS011;21192;40.182;44.516;2023-06-10T13:27:46;17.67;;;6.72;;
34988;SDS011;21192;40.182;44.516;2023-06-10T13:30:12;19.70;;;6.10;;
34988;SDS011;21192;40.182;44.516;2023-06-10T13:32:38;15.43;;;5.32;;
34988;SDS011;21192;40.182;44.516;2023-06-10T13:35:04;25.98;;;12.10;;
34988;SDS011;21192;40.182;44.516;2023-06-10T13:37:30;18.30;;;7.15;;
34988;SDS011;21192;40.182;44.516;2023-06-10T13:39:58;18.52;;;5.85;;
34988;SDS011;21192;40.182;44.516;2023-06-10T13:42:24;22.60;;;6.60;;
34988;SDS011;21192;40.182;44.516;2023-06-10T13:44:51;17.85;;;7.32;;
34988;SDS011;21192;40.182;44.516;2023-06-10T13:47:17;20.73;;;8.38;;
34988;SDS011;21192;40.182;44.516;2023-06-10T13:49:43;18.27;;;7.47;;
34988;SDS011;21192;40.182;44.516;2023-06-10T13:52:09;17.05;;;7.07;;
34988;SDS011;21192;40.182;44.516;2023-06-10T13:54:34;22.48;;;8.43;;
34988;SDS011;21192;40.182;44.516;2023-06-10T13:57:03;18.45;;;6.90;;
34988;SDS011;21192;40.182;44.516;2023-06-10T13:59:29;19.88;;;6.85;;
34988;SDS011;21192;40.182;44.516;2023-06-10T14:01:55;19.00;;;6.65;;
34988;SDS011;21192;40.182;44.516;2023-06-10T14:04:21;21.17;;;8.00;;
34988;SDS011;21192;40.182;44.516;2023-06-10T14:06:47;26.58;;;8.20;;
34988;SDS011;21192;40.182;44.516;2023-06-10T14:09:13;21.33;;;6.13;;
34988;SDS011;21192;40.182;44.516;2023-06-10T14:11:39;21.15;;;6.22;;
34988;SDS011;21192;40.182;44.516;2023-06-10T14:14:06;22.58;;;7.40;;
34988;SDS011;21192;40.182;44.516;2023-06-10T14:16:32;19.15;;;7.55;;
34988;SDS011;21192;40.182;44.516;2023-06-10T14:18:58;18.08;;;7.50;;
34988;SDS011;21192;40.182;44.516;2023-06-10T14:21:23;17.27;;;6.22;;
34988;SDS011;21192;40.182;44.516;2023-06-10T14:23:49;20.00;;;8.15;;
34988;SDS011;21192;40.182;44.516;2023-06-10T14:26:17;20.05;;;8.77;;
34988;SDS011;21192;40.182;44.516;2023-06-10T14:28:43;16.45;;;6.72;;
34988;SDS011;21192;40.182;44.516;2023-06-10T14:31:09;13.88;;;6.70;;
34988;SDS011;21192;40.182;44.516;2023-06-10T14:33:35;17.77;;;6.10;;
34988;SDS011;21192;40.182;44.516;2023-06-10T14:36:01;16.83;;;8.13;;
34988;SDS011;21192;40.182;44.516;2023-06-10T14:38:27;23.35;;;10.35;;
34988;SDS011;21192;40.182;44.516;2023-06-10T14:40:53;29.63;;;11.93;;